Time;durP1;ratioP1;P1;durP2;ratioP2;P2;SDS_P1;SDS_P2;PMS_P1;PMS_P2;Temp;Humidity;BMP_temperature;BMP_pressure;BME280_temperature;BME280_humidity;BME280_pressure;Samples;Min_cycle;Max_cycle;Signal;HPM_P1;HPM_P2
2022/04/16 00:00:21;;;;;;;;;;;6.90;99.90;;;;;;2062556;28;20337;-68
2022/04/16 00:01:21;;;;;;;;;;;6.90;99.90;;;;;;2062775;28;20385;-68
2022/04/16 00:02:22;;;;;;;;;;;6.90;99.90;;;;;;2063662;28;19914;-68
2022/04/16 00:03:23;;;;;;;;;;;6.80;99.90;;;;;;2060427;28;20016;-68
2022/04/16 00:04:24;;;;;;;;;;;6.90;99.90;;;;;;2061524;28;19914;-68
2022/04/16 00:05:24;;;;;;;;;;;6.80;99.90;;;;;;2063448;28;20009;-68
2022/04/16 00:06:25;;;;;;;;;;;6.80;99.90;;;;;;2060403;28;20054;-68
2022/04/16 00:07:25;;;;;;;;;;;6.80;99.90;;;;;;2060866;28;19918;-68
2022/04/16 00:08:27;;;;;;;;;;;6.80;99.90;;;;;;2061793;28;19961;-68
2022/04/16 00:09:28;;;;;;;;;;;6.80;99.90;;;;;;2062927;28;19929;-68
2022/04/16 00:10:28;;;;;;;;;;;6.80;99.90;;;;;;2060511;28;19994;-68
2022/04/16 00:11:29;;;;;;;;;;;6.80;99.90;;;;;;2064011;28;19913;-68
2022/04/16 00:12:29;;;;;;;;;;;6.70;99.90;;;;;;2061265;28;19992;-68
2022/04/16 00:13:30;;;;;;;;;;;6.70;99.90;;;;;;2060748;28;19918;-68
2022/04/16 00:14:31;;;;;;;;;;;6.70;99.90;;;;;;2063565;28;19914;-68
2022/04/16 00:15:32;;;;;;;;;;;6.70;99.90;;;;;;2055162;28;19910;-68
2022/04/16 00:16:32;;;;;;;;;;;6.70;99.90;;;;;;2060962;28;19910;-68
2022/04/16 00:17:34;;;;;;;;;;;6.70;99.90;;;;;;2063144;28;19921;-68
2022/04/16 00:18:34;;;;;;;;;;;6.70;99.90;;;;;;2055955;28;19993;-68
2022/04/16 00:19:36;;;;;;;;;;;6.70;99.90;;;;;;2057893;28;19917;-68
2022/04/16 00:20:37;;;;;;;;;;;6.70;99.90;;;;;;2059531;28;19910;-68
2022/04/16 00:21:38;;;;;;;;;;;6.60;99.90;;;;;;2055767;28;20535;-68
2022/04/16 00:22:38;;;;;;;;;;;6.60;99.90;;;;;;2059933;28;20378;-68
2022/04/16 00:23:40;;;;;;;;;;;6.60;99.90;;;;;;2059667;28;19910;-68
2022/04/16 00:24:42;;;;;;;;;;;6.60;99.90;;;;;;2062568;28;20009;-68
2022/04/16 00:25:43;;;;;;;;;;;6.60;99.90;;;;;;2063015;28;20060;-68
2022/04/16 00:26:43;;;;;;;;;;;6.60;99.90;;;;;;2061994;28;19914;-68
2022/04/16 00:27:44;;;;;;;;;;;6.60;99.90;;;;;;2063865;28;19916;-68
2022/04/16 00:28:45;;;;;;;;;;;6.60;99.90;;;;;;2060129;28;20056;-68
2022/04/16 00:29:46;;;;;;;;;;;6.50;99.90;;;;;;2059751;28;19918;-68
2022/04/16 00:30:46;;;;;;;;;;;6.60;99.90;;;;;;2058571;28;19918;-68
2022/04/16 00:31:47;;;;;;;;;;;6.50;99.90;;;;;;2060444;28;20016;-68
2022/04/16 00:32:47;;;;;;;;;;;6.50;99.90;;;;;;2060356;28;19937;-68
2022/04/16 00:33:48;;;;;;;;;;;6.50;99.90;;;;;;2062207;28;19964;-68
2022/04/16 00:34:48;;;;;;;;;;;6.50;99.90;;;;;;2059956;28;19933;-68
2022/04/16 00:35:49;;;;;;;;;;;6.50;99.90;;;;;;2056456;28;19913;-68
2022/04/16 00:36:50;;;;;;;;;;;6.50;99.90;;;;;;2061915;28;19910;-68
2022/04/16 00:37:51;;;;;;;;;;;6.40;99.90;;;;;;2062066;28;19994;-68
2022/04/16 00:38:52;;;;;;;;;;;6.40;99.90;;;;;;2062846;28;19961;-68
2022/04/16 00:39:52;;;;;;;;;;;6.40;99.90;;;;;;2060054;28;19917;-68
2022/04/16 00:40:53;;;;;;;;;;;6.40;99.90;;;;;;2063473;28;19917;-68
2022/04/16 00:41:53;;;;;;;;;;;6.40;99.90;;;;;;2063926;28;19910;-68
2022/04/16 00:42:54;;;;;;;;;;;6.40;99.90;;;;;;2060290;28;20334;-68
2022/04/16 00:43:55;;;;;;;;;;;6.40;99.90;;;;;;2063142;28;20380;-68
2022/04/16 00:44:55;;;;;;;;;;;6.40;99.90;;;;;;2060108;28;19921;-68
2022/04/16 00:45:56;;;;;;;;;;;6.30;99.90;;;;;;2063388;28;19921;-68
2022/04/16 00:46:57;;;;;;;;;;;6.30;99.90;;;;;;2063547;28;19997;-68
2022/04/16 00:47:59;;;;;;;;;;;6.30;99.90;;;;;;2060153;28;19914;-68
2022/04/16 00:49:00;;;;;;;;;;;6.30;99.90;;;;;;2064158;28;20177;-68
2022/04/16 00:50:01;;;;;;;;;;;6.30;99.90;;;;;;2063711;28;20497;-68
2022/04/16 00:51:02;;;;;;;;;;;6.30;99.90;;;;;;2060450;28;20255;-68
2022/04/16 00:52:04;;;;;;;;;;;6.30;99.90;;;;;;2062289;28;20366;-68
2022/04/16 00:53:04;;;;;;;;;;;6.30;99.90;;;;;;2063223;28;19918;-68
2022/04/16 00:54:05;;;;;;;;;;;6.30;99.90;;;;;;2063535;28;19925;-68
2022/04/16 00:55:08;;;;;;;;;;;6.30;99.90;;;;;;2062562;28;19925;-68
2022/04/16 00:56:12;;;;;;;;;;;6.20;99.90;;;;;;2070345;28;19971;-68
2022/04/16 00:57:12;;;;;;;;;;;6.20;99.90;;;;;;2065051;28;20382;-68
2022/04/16 00:58:13;;;;;;;;;;;6.20;99.90;;;;;;2069318;28;20380;-68
2022/04/16 00:59:14;;;;;;;;;;;6.20;99.90;;;;;;2065887;28;19996;-67
2022/04/16 01:00:15;;;;;;;;;;;6.20;99.90;;;;;;2062983;28;19917;-68
2022/04/16 01:01:15;;;;;;;;;;;6.20;99.90;;;;;;2063297;28;20161;-68
2022/04/16 01:02:15;;;;;;;;;;;6.20;99.90;;;;;;2056494;28;19913;-68
2022/04/16 01:03:16;;;;;;;;;;;6.20;99.90;;;;;;2061070;28;19910;-68
2022/04/16 01:04:17;;;;;;;;;;;6.20;99.90;;;;;;2060540;28;20472;-68
2022/04/16 01:05:19;;;;;;;;;;;6.10;99.90;;;;;;2063082;28;20401;-68
2022/04/16 01:06:20;;;;;;;;;;;6.20;99.90;;;;;;2062406;28;19910;-68
2022/04/16 01:07:24;;;;;;;;;;;6.10;99.90;;;;;;2060346;28;19917;-68
2022/04/16 01:08:24;;;;;;;;;;;6.10;99.90;;;;;;2059889;28;20305;-68
2022/04/16 01:09:25;;;;;;;;;;;6.10;99.90;;;;;;2060825;28;19917;-68
2022/04/16 01:10:29;;;;;;;;;;;6.10;99.90;;;;;;2059901;28;19997;-68
2022/04/16 01:11:32;;;;;;;;;;;6.10;99.90;;;;;;2061053;28;19917;-68
2022/04/16 01:12:32;;;;;;;;;;;6.10;99.90;;;;;;2061427;28;19965;-68
2022/04/16 01:13:33;;;;;;;;;;;6.10;99.90;;;;;;2059933;28;19925;-68
2022/04/16 01:14:33;;;;;;;;;;;6.10;99.90;;;;;;2063971;28;19917;-68
2022/04/16 01:15:34;;;;;;;;;;;6.10;99.90;;;;;;2062923;28;19918;-68
2022/04/16 01:16:34;;;;;;;;;;;6.10;99.90;;;;;;2062000;28;19914;-68
2022/04/16 01:17:35;;;;;;;;;;;6.10;99.90;;;;;;2061631;28;19920;-68
2022/04/16 01:18:43;;;;;;;;;;;6.10;99.90;;;;;;2061962;28;19957;-68
2022/04/16 01:19:44;;;;;;;;;;;6.00;99.90;;;;;;2060662;28;20004;-68
2022/04/16 01:20:44;;;;;;;;;;;6.00;99.90;;;;;;2054447;28;19929;-68
2022/04/16 01:21:46;;;;;;;;;;;6.00;99.90;;;;;;2060158;28;19917;-68
2022/04/16 01:22:47;;;;;;;;;;;6.00;99.90;;;;;;2059456;28;19956;-68
2022/04/16 01:23:48;;;;;;;;;;;6.00;99.90;;;;;;2060953;28;20377;-68
2022/04/16 01:24:49;;;;;;;;;;;6.00;99.90;;;;;;2060052;28;20325;-68
2022/04/16 01:25:50;;;;;;;;;;;6.00;99.90;;;;;;2062077;28;20657;-68
2022/04/16 01:26:51;;;;;;;;;;;6.00;99.90;;;;;;2058380;28;20004;-68
2022/04/16 01:27:52;;;;;;;;;;;6.00;99.90;;;;;;2063979;28;19913;-68
2022/04/16 01:28:52;;;;;;;;;;;6.00;99.90;;;;;;2061573;28;19936;-68
2022/04/16 01:29:53;;;;;;;;;;;6.00;99.90;;;;;;2063977;28;19914;-68
2022/04/16 01:30:54;;;;;;;;;;;6.00;99.90;;;;;;2059842;28;19914;-68
2022/04/16 01:31:54;;;;;;;;;;;5.90;99.90;;;;;;2059816;28;20397;-68
2022/04/16 01:32:55;;;;;;;;;;;6.00;99.90;;;;;;2062077;28;19914;-68
2022/04/16 01:33:57;;;;;;;;;;;5.90;99.90;;;;;;2059244;28;20409;-68
2022/04/16 01:34:57;;;;;;;;;;;5.90;99.90;;;;;;2063732;28;19914;-68
2022/04/16 01:35:58;;;;;;;;;;;5.90;99.90;;;;;;2060076;28;19918;-68
2022/04/16 01:37:02;;;;;;;;;;;5.90;99.90;;;;;;2063053;28;19917;-68
2022/04/16 01:38:08;;;;;;;;;;;5.90;99.90;;;;;;2060375;28;20564;-68
2022/04/16 01:39:08;;;;;;;;;;;5.90;99.90;;;;;;2068976;28;19910;-68
2022/04/16 01:40:10;;;;;;;;;;;5.90;99.90;;;;;;2067711;28;19968;-68
2022/04/16 01:41:10;;;;;;;;;;;5.90;99.90;;;;;;2057714;28;19921;-68
2022/04/16 01:42:11;;;;;;;;;;;5.90;99.90;;;;;;2064152;28;19985;-68
2022/04/16 01:43:11;;;;;;;;;;;5.80;99.90;;;;;;2063075;28;19917;-68
2022/04/16 01:44:12;;;;;;;;;;;5.90;99.90;;;;;;2062808;28;19910;-68
2022/04/16 01:45:17;;;;;;;;;;;5.90;99.90;;;;;;2060686;28;19914;-68
2022/04/16 01:46:18;;;;;;;;;;;5.80;99.90;;;;;;2061844;28;19910;-68
2022/04/16 01:47:18;;;;;;;;;;;5.90;99.90;;;;;;2061599;28;19921;-68
2022/04/16 01:48:19;;;;;;;;;;;5.80;99.90;;;;;;2065135;28;19968;-68
2022/04/16 01:49:22;;;;;;;;;;;5.80;99.90;;;;;;2064862;28;19913;-68
2022/04/16 01:50:23;;;;;;;;;;;5.80;99.90;;;;;;2064497;28;19957;-68
2022/04/16 01:51:24;;;;;;;;;;;5.80;99.90;;;;;;2065404;28;19994;-68
2022/04/16 01:52:24;;;;;;;;;;;5.80;99.90;;;;;;2063058;28;19936;-68
2022/04/16 01:53:25;;;;;;;;;;;5.80;99.90;;;;;;2064415;28;19917;-68
2022/04/16 01:54:25;;;;;;;;;;;5.80;99.90;;;;;;2061514;28;19914;-67
2022/04/16 01:55:26;;;;;;;;;;;5.80;99.90;;;;;;2064075;28;19928;-69
2022/04/16 01:56:27;;;;;;;;;;;5.80;99.90;;;;;;2063845;28;19913;-69
2022/04/16 01:57:27;;;;;;;;;;;5.70;99.90;;;;;;2065072;28;20369;-67
2022/04/16 01:58:27;;;;;;;;;;;5.80;99.90;;;;;;2061605;28;19936;-68
2022/04/16 01:59:29;;;;;;;;;;;5.70;99.90;;;;;;2063306;28;20068;-67
2022/04/16 02:00:29;;;;;;;;;;;5.70;99.90;;;;;;2061836;28;20693;-67
2022/04/16 02:01:32;;;;;;;;;;;5.70;99.90;;;;;;2068185;28;20801;-67
2022/04/16 02:02:33;;;;;;;;;;;5.70;99.90;;;;;;2067042;28;19914;-67
2022/04/16 02:03:34;;;;;;;;;;;5.70;99.90;;;;;;2064852;28;20333;-67
2022/04/16 02:04:35;;;;;;;;;;;5.70;99.90;;;;;;2063238;28;19980;-67
2022/04/16 02:05:36;;;;;;;;;;;5.70;99.90;;;;;;2061859;28;19918;-68
2022/04/16 02:06:36;;;;;;;;;;;5.70;99.90;;;;;;2068212;28;20443;-67
2022/04/16 02:07:39;;;;;;;;;;;5.60;99.90;;;;;;2068837;28;19910;-67
2022/04/16 02:08:39;;;;;;;;;;;5.60;99.90;;;;;;2057848;28;19931;-68
2022/04/16 02:09:40;;;;;;;;;;;5.60;99.90;;;;;;2060742;28;19910;-68
2022/04/16 02:10:41;;;;;;;;;;;5.60;99.90;;;;;;2061996;28;19910;-67
2022/04/16 02:11:41;;;;;;;;;;;5.60;99.90;;;;;;2065525;28;20085;-69
2022/04/16 02:12:42;;;;;;;;;;;5.60;99.90;;;;;;2061890;28;20045;-67
2022/04/16 02:13:44;;;;;;;;;;;5.60;99.90;;;;;;2061616;28;19957;-67
2022/04/16 02:14:44;;;;;;;;;;;5.60;99.90;;;;;;2064670;28;19910;-68
2022/04/16 02:15:45;;;;;;;;;;;5.60;99.90;;;;;;2064684;28;19952;-67
2022/04/16 02:16:45;;;;;;;;;;;5.60;99.90;;;;;;2060782;28;19963;-66
2022/04/16 02:17:45;;;;;;;;;;;5.60;99.90;;;;;;2064681;28;20004;-69
2022/04/16 02:18:46;;;;;;;;;;;5.60;99.90;;;;;;2061462;28;20004;-67
2022/04/16 02:19:48;;;;;;;;;;;5.60;99.90;;;;;;2061843;28;19910;-69
2022/04/16 02:20:49;;;;;;;;;;;5.50;99.90;;;;;;2064777;28;19918;-69
2022/04/16 02:21:49;;;;;;;;;;;5.60;99.90;;;;;;2061605;28;20003;-66
2022/04/16 02:22:52;;;;;;;;;;;5.50;99.90;;;;;;2059365;28;20063;-69
2022/04/16 02:23:52;;;;;;;;;;;5.50;99.90;;;;;;2059303;28;19945;-69
2022/04/16 02:24:53;;;;;;;;;;;5.50;99.90;;;;;;2061491;28;20385;-69
2022/04/16 02:25:53;;;;;;;;;;;5.50;99.90;;;;;;2064856;28;19913;-69
2022/04/16 02:26:55;;;;;;;;;;;5.50;99.90;;;;;;2061437;28;19925;-69
2022/04/16 02:27:56;;;;;;;;;;;5.50;99.90;;;;;;2064437;28;19921;-69
2022/04/16 02:28:58;;;;;;;;;;;5.50;99.90;;;;;;2064051;28;20365;-69
2022/04/16 02:29:58;;;;;;;;;;;5.50;99.90;;;;;;2061337;28;19916;-69
2022/04/16 02:31:00;;;;;;;;;;;5.50;99.90;;;;;;2063732;28;19914;-69
2022/04/16 02:32:02;;;;;;;;;;;5.50;99.90;;;;;;2060809;28;20267;-69
2022/04/16 02:33:02;;;;;;;;;;;5.50;99.90;;;;;;2064863;28;20524;-68
2022/04/16 02:34:07;;;;;;;;;;;5.40;99.90;;;;;;2061475;28;20253;-69
2022/04/16 02:35:08;;;;;;;;;;;5.40;99.90;;;;;;2062963;28;20366;-69
2022/04/16 02:36:08;;;;;;;;;;;5.40;99.90;;;;;;2064236;28;20258;-69
2022/04/16 02:37:09;;;;;;;;;;;5.40;99.90;;;;;;2065013;28;19936;-69
2022/04/16 02:38:09;;;;;;;;;;;5.40;99.90;;;;;;2063942;28;19916;-69
2022/04/16 02:39:10;;;;;;;;;;;5.40;99.90;;;;;;2059674;28;19999;-69
2022/04/16 02:40:11;;;;;;;;;;;5.40;99.90;;;;;;2063760;28;19917;-69
2022/04/16 02:41:11;;;;;;;;;;;5.40;99.90;;;;;;2061841;28;19910;-69
2022/04/16 02:42:13;;;;;;;;;;;5.40;99.90;;;;;;2063146;28;19921;-69
2022/04/16 02:43:13;;;;;;;;;;;5.40;99.90;;;;;;2061605;28;19916;-69
2022/04/16 02:47:08;;;;;;;;;;;5.40;99.90;;;;;;2062418;28;19910;-68
2022/04/16 02:48:08;;;;;;;;;;;5.30;99.90;;;;;;2064224;28;19980;-68
2022/04/16 02:49:09;;;;;;;;;;;5.30;99.90;;;;;;2062810;28;20004;-69
2022/04/16 02:50:11;;;;;;;;;;;5.30;99.90;;;;;;2063676;28;19914;-69
2022/04/16 02:51:12;;;;;;;;;;;5.30;99.90;;;;;;2062126;28;19910;-68
2022/04/16 02:52:13;;;;;;;;;;;5.30;99.90;;;;;;2063885;28;19910;-68
2022/04/16 02:53:13;;;;;;;;;;;5.30;99.90;;;;;;2061438;28;19953;-69
2022/04/16 02:54:14;;;;;;;;;;;5.30;99.90;;;;;;2064457;28;20012;-68
2022/04/16 02:55:15;;;;;;;;;;;5.30;99.90;;;;;;2062792;28;19953;-69
2022/04/16 02:56:16;;;;;;;;;;;5.30;99.90;;;;;;2063472;28;20077;-68
2022/04/16 02:57:16;;;;;;;;;;;5.30;99.90;;;;;;2064789;28;19917;-68
2022/04/16 02:58:17;;;;;;;;;;;5.30;99.90;;;;;;2064375;28;20003;-68
2022/04/16 02:59:17;;;;;;;;;;;5.30;99.90;;;;;;2061397;28;19910;-68
2022/04/16 03:00:21;;;;;;;;;;;5.30;99.90;;;;;;2063826;28;20000;-68
2022/04/16 03:01:22;;;;;;;;;;;5.30;99.90;;;;;;2062243;28;19953;-68
2022/04/16 03:02:22;;;;;;;;;;;5.30;99.90;;;;;;2062665;28;19921;-68
2022/04/16 03:03:22;;;;;;;;;;;5.30;99.90;;;;;;2063564;28;19914;-68
2022/04/16 03:04:23;;;;;;;;;;;5.30;99.90;;;;;;2060783;28;20402;-68
2022/04/16 03:05:23;;;;;;;;;;;5.30;99.90;;;;;;2060692;28;19929;-69
2022/04/16 03:06:24;;;;;;;;;;;5.30;99.90;;;;;;2065013;28;19910;-69
2022/04/16 03:07:24;;;;;;;;;;;5.30;99.90;;;;;;2061042;28;19926;-69
2022/04/16 03:08:25;;;;;;;;;;;5.20;99.90;;;;;;2063841;28;20053;-68
2022/04/16 03:09:25;;;;;;;;;;;5.30;99.90;;;;;;2061721;28;20010;-68
2022/04/16 03:10:26;;;;;;;;;;;5.30;99.90;;;;;;2059475;28;19925;-68
2022/04/16 03:11:26;;;;;;;;;;;5.30;99.90;;;;;;2063720;28;19914;-69
2022/04/16 03:12:27;;;;;;;;;;;5.20;99.90;;;;;;2061036;28;19992;-69
2022/04/16 03:13:27;;;;;;;;;;;5.20;99.90;;;;;;2068145;28;19917;-68
2022/04/16 03:18:25;;;;;;;;;;;5.20;99.90;;;;;;2062656;28;19910;-68
2022/04/16 03:19:25;;;;;;;;;;;5.30;99.90;;;;;;2060439;28;19918;-68
2022/04/16 03:20:29;;;;;;;;;;;5.30;99.90;;;;;;2063216;28;19949;-68
2022/04/16 03:21:29;;;;;;;;;;;5.20;99.90;;;;;;2063685;28;19918;-68
2022/04/16 03:22:31;;;;;;;;;;;5.30;99.90;;;;;;2064600;28;19925;-68
2022/04/16 03:23:31;;;;;;;;;;;5.20;99.90;;;;;;2060382;28;20359;-68
2022/04/16 03:24:31;;;;;;;;;;;5.20;99.90;;;;;;2062445;28;19914;-68
2022/04/16 03:25:32;;;;;;;;;;;5.20;99.90;;;;;;2062583;28;19918;-68
2022/04/16 03:26:33;;;;;;;;;;;5.20;99.90;;;;;;2064368;28;20012;-68
2022/04/16 03:27:33;;;;;;;;;;;5.20;99.90;;;;;;2063488;28;19917;-68
2022/04/16 03:28:34;;;;;;;;;;;5.20;99.90;;;;;;2061330;28;19910;-69
2022/04/16 03:29:34;;;;;;;;;;;5.20;99.90;;;;;;2060226;28;19914;-69
2022/04/16 03:30:35;;;;;;;;;;;5.20;99.90;;;;;;2063738;28;20399;-69
2022/04/16 03:31:36;;;;;;;;;;;5.20;99.90;;;;;;2060371;28;19970;-68
2022/04/16 03:32:37;;;;;;;;;;;5.20;99.90;;;;;;2064036;28;19918;-68
2022/04/16 03:33:38;;;;;;;;;;;5.20;99.90;;;;;;2062073;28;20409;-68
2022/04/16 03:34:39;;;;;;;;;;;5.20;99.90;;;;;;2061007;28;19910;-68
2022/04/16 03:35:40;;;;;;;;;;;5.20;99.90;;;;;;2063756;28;19913;-68
2022/04/16 03:36:40;;;;;;;;;;;5.20;99.90;;;;;;2064183;28;20030;-68
2022/04/16 03:37:41;;;;;;;;;;;5.20;99.90;;;;;;2062541;28;19910;-69
2022/04/16 03:38:42;;;;;;;;;;;5.20;99.90;;;;;;2063172;28;19910;-68
2022/04/16 03:39:44;;;;;;;;;;;5.20;99.90;;;;;;2061098;28;19917;-68
2022/04/16 03:40:44;;;;;;;;;;;5.20;99.90;;;;;;2063726;28;19916;-69
2022/04/16 03:41:45;;;;;;;;;;;5.20;99.90;;;;;;2060954;28;19921;-69
2022/04/16 03:42:50;;;;;;;;;;;5.20;99.90;;;;;;2062683;28;19925;-68
2022/04/16 03:43:50;;;;;;;;;;;5.20;99.90;;;;;;2064471;28;19914;-69
2022/04/16 03:44:51;;;;;;;;;;;5.20;99.90;;;;;;2061616;28;19910;-69
2022/04/16 03:45:51;;;;;;;;;;;5.20;99.90;;;;;;2063428;28;19921;-69
2022/04/16 03:46:52;;;;;;;;;;;5.20;99.90;;;;;;2060387;28;20341;-69
2022/04/16 03:47:56;;;;;;;;;;;5.20;99.90;;;;;;2062811;28;19910;-69
2022/04/16 03:48:59;;;;;;;;;;;5.30;99.90;;;;;;2063843;28;19917;-69
2022/04/16 03:50:00;;;;;;;;;;;5.30;99.90;;;;;;2063517;28;19921;-69
2022/04/16 03:51:00;;;;;;;;;;;5.30;99.90;;;;;;2060711;28;19917;-69
2022/04/16 03:52:01;;;;;;;;;;;5.30;99.90;;;;;;2063776;28;20001;-69
2022/04/16 03:53:02;;;;;;;;;;;5.30;99.90;;;;;;2062002;28;20060;-69
2022/04/16 04:00:41;;;;;;;;;;;5.40;99.90;;;;;;2062287;28;20012;-69
2022/04/16 04:01:41;;;;;;;;;;;5.50;99.90;;;;;;2061893;28;19910;-69
2022/04/16 04:02:42;;;;;;;;;;;5.40;99.90;;;;;;2060781;28;19910;-69
2022/04/16 04:03:42;;;;;;;;;;;5.50;99.90;;;;;;2063739;28;19952;-69
2022/04/16 04:04:43;;;;;;;;;;;5.50;99.90;;;;;;2064156;28;19918;-69
2022/04/16 04:05:45;;;;;;;;;;;5.50;99.90;;;;;;2060299;28;19913;-69
2022/04/16 04:06:45;;;;;;;;;;;5.50;99.90;;;;;;2058851;28;19918;-69
2022/04/16 04:07:46;;;;;;;;;;;5.50;99.90;;;;;;2062192;28;19925;-69
2022/04/16 04:08:46;;;;;;;;;;;5.50;99.90;;;;;;2060513;28;19910;-69
2022/04/16 04:09:47;;;;;;;;;;;5.50;99.90;;;;;;2059898;28;19917;-69
2022/04/16 04:10:47;;;;;;;;;;;5.50;99.90;;;;;;2063592;28;19918;-69
2022/04/16 04:11:48;;;;;;;;;;;5.50;99.90;;;;;;2063265;28;20036;-69
2022/04/16 04:12:48;;;;;;;;;;;5.50;99.90;;;;;;2059504;28;19914;-69
2022/04/16 04:13:48;;;;;;;;;;;5.50;99.90;;;;;;2059848;28;19918;-69
2022/04/16 04:14:49;;;;;;;;;;;5.50;99.90;;;;;;2062758;28;19914;-69
2022/04/16 04:15:49;;;;;;;;;;;5.50;99.90;;;;;;2061213;28;19914;-69
2022/04/16 04:16:50;;;;;;;;;;;5.50;99.90;;;;;;2060833;28;19917;-69
2022/04/16 04:17:51;;;;;;;;;;;5.50;99.90;;;;;;2062674;28;19956;-69
2022/04/16 04:18:51;;;;;;;;;;;5.50;99.90;;;;;;2060840;28;19910;-69
2022/04/16 04:19:51;;;;;;;;;;;5.50;99.90;;;;;;2062814;28;19910;-69
2022/04/16 04:20:52;;;;;;;;;;;5.50;99.90;;;;;;2062072;28;20312;-69
2022/04/16 04:21:52;;;;;;;;;;;5.50;99.90;;;;;;2060018;28;19977;-69
2022/04/16 04:22:53;;;;;;;;;;;5.50;99.90;;;;;;2060408;28;19957;-69
2022/04/16 04:23:54;;;;;;;;;;;5.50;99.90;;;;;;2062839;28;20340;-69
2022/04/16 04:24:54;;;;;;;;;;;5.50;99.90;;;;;;2058590;28;19910;-69
2022/04/16 04:25:55;;;;;;;;;;;5.50;99.90;;;;;;2060513;28;20028;-69
2022/04/16 04:26:59;;;;;;;;;;;5.50;99.90;;;;;;2057444;28;20687;-69
2022/04/16 04:28:00;;;;;;;;;;;5.50;99.90;;;;;;2058951;28;19988;-69
2022/04/16 04:29:00;;;;;;;;;;;5.50;99.90;;;;;;2059821;28;19972;-69
2022/04/16 04:30:01;;;;;;;;;;;5.50;99.90;;;;;;2059190;28;19957;-69
2022/04/16 04:31:02;;;;;;;;;;;5.50;99.90;;;;;;2060541;28;20438;-69
2022/04/16 04:32:03;;;;;;;;;;;5.50;99.90;;;;;;2056807;28;19980;-69
2022/04/16 04:33:03;;;;;;;;;;;5.50;99.90;;;;;;2056688;28;19922;-69
2022/04/16 04:34:04;;;;;;;;;;;5.50;99.90;;;;;;2061384;28;19925;-69
2022/04/16 04:35:04;;;;;;;;;;;5.50;99.90;;;;;;2059015;28;19913;-69
2022/04/16 04:36:05;;;;;;;;;;;5.50;99.90;;;;;;2062934;28;19910;-69
2022/04/16 04:37:06;;;;;;;;;;;5.50;99.90;;;;;;2059049;28;19981;-69
2022/04/16 04:38:06;;;;;;;;;;;5.50;99.90;;;;;;2059402;28;19924;-69
2022/04/16 04:39:06;;;;;;;;;;;5.50;99.90;;;;;;2060210;28;19914;-69
2022/04/16 04:40:07;;;;;;;;;;;5.50;99.90;;;;;;2060468;28;19910;-69
2022/04/16 04:41:08;;;;;;;;;;;5.50;99.90;;;;;;2060046;28;19917;-69
2022/04/16 04:42:08;;;;;;;;;;;5.50;99.90;;;;;;2060213;28;19910;-69
2022/04/16 04:43:08;;;;;;;;;;;5.50;99.90;;;;;;2056868;28;19921;-69
2022/04/16 04:44:12;;;;;;;;;;;5.50;99.90;;;;;;2061376;28;19945;-69
2022/04/16 04:45:14;;;;;;;;;;;5.50;99.90;;;;;;2060617;28;19920;-69
2022/04/16 04:46:14;;;;;;;;;;;5.50;99.90;;;;;;2056796;28;19917;-69
2022/04/16 04:47:14;;;;;;;;;;;5.50;99.90;;;;;;2056764;28;19950;-69
2022/04/16 04:48:15;;;;;;;;;;;5.50;99.90;;;;;;2058713;28;19910;-69
2022/04/16 04:49:15;;;;;;;;;;;5.50;99.90;;;;;;2059076;28;19985;-69
2022/04/16 04:50:16;;;;;;;;;;;5.50;99.90;;;;;;2061503;28;19914;-69
2022/04/16 04:51:16;;;;;;;;;;;5.50;99.90;;;;;;2060108;28;19915;-69
2022/04/16 04:52:20;;;;;;;;;;;5.60;99.90;;;;;;2056635;28;19933;-69
2022/04/16 04:53:21;;;;;;;;;;;5.60;99.90;;;;;;2057103;28;20251;-69
2022/04/16 04:54:21;;;;;;;;;;;5.60;99.90;;;;;;2060229;28;19976;-69
2022/04/16 04:55:22;;;;;;;;;;;5.60;99.90;;;;;;2057977;28;20012;-69
2022/04/16 04:56:22;;;;;;;;;;;5.60;99.90;;;;;;2063069;28;19972;-69
2022/04/16 04:57:23;;;;;;;;;;;5.70;99.90;;;;;;2056234;28;19914;-69
2022/04/16 04:58:23;;;;;;;;;;;5.70;99.90;;;;;;2060357;28;19921;-69
2022/04/16 04:59:24;;;;;;;;;;;5.70;99.90;;;;;;2058359;28;20445;-69
2022/04/16 05:00:24;;;;;;;;;;;5.70;99.90;;;;;;2060128;28;19913;-69
2022/04/16 05:01:25;;;;;;;;;;;5.70;99.90;;;;;;2059628;28;20421;-69
2022/04/16 05:02:25;;;;;;;;;;;5.70;99.90;;;;;;2063984;28;19914;-69
2022/04/16 05:03:25;;;;;;;;;;;5.70;99.90;;;;;;2070368;28;19922;-69
2022/04/16 05:04:26;;;;;;;;;;;5.70;99.90;;;;;;2063657;28;19921;-69
2022/04/16 05:05:26;;;;;;;;;;;5.70;99.90;;;;;;2062651;28;19918;-69
2022/04/16 05:06:27;;;;;;;;;;;5.80;99.90;;;;;;2062127;28;19920;-69
2022/04/16 05:07:27;;;;;;;;;;;5.80;99.90;;;;;;2057921;28;20355;-69
2022/04/16 05:08:28;;;;;;;;;;;5.80;99.90;;;;;;2060385;28;20285;-69
2022/04/16 05:09:29;;;;;;;;;;;5.80;99.90;;;;;;2058025;28;19961;-69
2022/04/16 05:10:29;;;;;;;;;;;5.80;99.90;;;;;;2056658;28;20354;-69
2022/04/16 05:11:30;;;;;;;;;;;5.80;99.90;;;;;;2060432;28;19914;-69
2022/04/16 05:12:30;;;;;;;;;;;5.90;99.90;;;;;;2060887;28;19910;-69
2022/04/16 05:13:30;;;;;;;;;;;5.90;99.90;;;;;;2060021;28;19941;-69
2022/04/16 05:14:32;;;;;;;;;;;5.90;99.90;;;;;;2061007;28;19998;-69
2022/04/16 05:15:32;;;;;;;;;;;5.90;99.90;;;;;;2065317;28;19914;-69
2022/04/16 05:16:32;;;;;;;;;;;5.90;99.90;;;;;;2065641;28;19997;-69
2022/04/16 05:17:37;;;;;;;;;;;5.90;99.90;;;;;;2066721;28;19913;-69
2022/04/16 05:18:37;;;;;;;;;;;5.90;99.90;;;;;;2070452;28;20393;-69
2022/04/16 05:19:38;;;;;;;;;;;6.00;99.90;;;;;;2063524;28;19933;-69
2022/04/16 05:20:38;;;;;;;;;;;6.00;99.90;;;;;;2060847;28;19910;-69
2022/04/16 05:21:39;;;;;;;;;;;6.00;99.90;;;;;;2060405;28;19913;-69
2022/04/16 05:22:39;;;;;;;;;;;6.00;99.90;;;;;;2062992;28;20345;-69
2022/04/16 05:23:40;;;;;;;;;;;6.00;99.90;;;;;;2059951;28;19917;-69
2022/04/16 05:24:41;;;;;;;;;;;6.00;99.90;;;;;;2061725;28;19968;-69
2022/04/16 05:25:41;;;;;;;;;;;6.10;99.90;;;;;;2060355;28;19909;-69
2022/04/16 05:26:42;;;;;;;;;;;6.10;99.90;;;;;;2059243;28;19965;-69
2022/04/16 05:27:42;;;;;;;;;;;6.10;99.90;;;;;;2061268;28;19953;-69
2022/04/16 05:28:43;;;;;;;;;;;6.10;99.90;;;;;;2059939;28;19917;-69
2022/04/16 05:29:56;;;;;;;;;;;6.20;99.90;;;;;;2063606;28;19917;-69
2022/04/16 05:30:58;;;;;;;;;;;6.20;99.90;;;;;;2062131;28;19913;-69
2022/04/16 05:31:58;;;;;;;;;;;6.20;99.90;;;;;;2062361;28;19918;-69
2022/04/16 05:33:05;;;;;;;;;;;6.20;99.90;;;;;;2062511;28;19957;-69
2022/04/16 05:34:21;;;;;;;;;;;6.20;99.90;;;;;;2060254;28;20452;-69
2022/04/16 05:35:21;;;;;;;;;;;6.20;99.90;;;;;;2062986;28;19920;-69
2022/04/16 05:36:22;;;;;;;;;;;6.20;99.90;;;;;;2063249;28;19916;-69
2022/04/16 05:37:22;;;;;;;;;;;6.20;99.90;;;;;;2059287;28;20005;-69
2022/04/16 05:38:22;;;;;;;;;;;6.30;99.90;;;;;;2061142;28;19916;-69
2022/04/16 05:39:23;;;;;;;;;;;6.30;99.90;;;;;;2060840;28;19918;-69
2022/04/16 05:40:24;;;;;;;;;;;6.30;99.90;;;;;;2071043;28;19960;-69
2022/04/16 05:41:25;;;;;;;;;;;6.30;99.90;;;;;;2069172;28;19914;-69
2022/04/16 05:42:25;;;;;;;;;;;6.40;99.90;;;;;;2061740;28;19917;-69
2022/04/16 05:43:26;;;;;;;;;;;6.40;99.90;;;;;;2059868;28;19925;-69
2022/04/16 05:44:26;;;;;;;;;;;6.40;99.90;;;;;;2060828;28;20029;-69
2022/04/16 05:45:27;;;;;;;;;;;6.40;99.90;;;;;;2061152;28;19976;-69
2022/04/16 05:46:27;;;;;;;;;;;6.50;99.90;;;;;;2061025;28;20313;-69
2022/04/16 05:47:28;;;;;;;;;;;6.60;99.90;;;;;;2061641;28;19965;-69
2022/04/16 05:48:28;;;;;;;;;;;6.60;99.90;;;;;;2060876;28;19921;-69
2022/04/16 05:49:30;;;;;;;;;;;6.60;99.90;;;;;;2059153;28;19917;-69
2022/04/16 05:50:30;;;;;;;;;;;6.70;99.90;;;;;;2063500;28;19914;-69
2022/04/16 05:51:31;;;;;;;;;;;6.80;99.90;;;;;;2062311;28;19955;-69
2022/04/16 05:52:31;;;;;;;;;;;6.80;99.90;;;;;;2060915;28;19949;-69
2022/04/16 05:53:32;;;;;;;;;;;6.90;99.90;;;;;;2066662;28;19913;-69
2022/04/16 05:54:33;;;;;;;;;;;6.90;99.90;;;;;;2070666;28;19917;-69
2022/04/16 05:55:34;;;;;;;;;;;7.00;99.90;;;;;;2062435;28;19917;-69
2022/04/16 05:56:34;;;;;;;;;;;7.00;99.90;;;;;;2063959;28;19920;-69
2022/04/16 05:57:35;;;;;;;;;;;7.10;99.90;;;;;;2060242;28;19997;-69
2022/04/16 05:58:37;;;;;;;;;;;7.10;99.90;;;;;;2063913;28;19914;-69
2022/04/16 05:59:37;;;;;;;;;;;7.20;99.90;;;;;;2060408;28;20032;-69
2022/04/16 06:00:37;;;;;;;;;;;7.20;99.90;;;;;;2059949;28;19918;-69
2022/04/16 06:01:38;;;;;;;;;;;7.30;99.90;;;;;;2063013;28;19913;-69
2022/04/16 06:02:38;;;;;;;;;;;7.40;99.90;;;;;;2063497;28;20342;-69
2022/04/16 06:03:42;;;;;;;;;;;7.40;99.90;;;;;;2060129;28;19910;-69
2022/04/16 06:04:42;;;;;;;;;;;7.50;99.90;;;;;;2060555;28;20329;-69
2022/04/16 06:05:43;;;;;;;;;;;7.50;99.90;;;;;;2058575;28;19910;-69
2022/04/16 06:06:43;;;;;;;;;;;7.60;99.90;;;;;;2063111;28;19914;-69
2022/04/16 06:07:44;;;;;;;;;;;7.70;99.90;;;;;;2062679;28;19914;-69
2022/04/16 06:08:44;;;;;;;;;;;7.70;99.90;;;;;;2067615;28;20400;-69
2022/04/16 06:09:45;;;;;;;;;;;7.80;99.90;;;;;;2070190;28;19936;-69
2022/04/16 06:10:45;;;;;;;;;;;7.90;99.90;;;;;;2059887;28;19922;-69
2022/04/16 06:11:48;;;;;;;;;;;7.90;99.90;;;;;;2059169;28;19918;-69
2022/04/16 06:12:49;;;;;;;;;;;8.00;99.90;;;;;;2061226;28;19910;-69
2022/04/16 06:13:49;;;;;;;;;;;8.00;99.90;;;;;;2062311;28;20625;-69